Search for airport 
image banner adimage banner adimage banner ad
image banner ad

CCX3 - Brockway

Located in , Canada

ICAO - CCX3, IATA -

Data provided by Airmate  

General information

Coordinates: N45°34'0" W67°6'0"
Elevation is 300 feet MSL.
Magnetic variation is -17.1833° East
View others Airports in New Brunswick

Operational data

Special qualification required
Current time UTC:
Current local time:
Weather at : CYFC - Fredericton Intl ( 55 km )
METAR: CYFC 191000Z AUTO 23007KT 9SM BKN030 04/03 A2959 RMK SLP023
TAF: TAF CYFC 190538Z 1906/1918 27008KT P6SM SCT130 FM191400 27010G20KT P6SM BKN030 TEMPO 1915/1918 P6SM -SHRA BKN020 RMK FCST BASED ON AUTO OBS. NXT FCST BY 191200Z
View NOTAMs / SUP AIP / TFR affecting this airport [VIEW]
Communications frequencies: [VIEW]

Runways:

RWY identifierQFULength (ft)Width (ft)SurfaceLDA (ft)
04400075GRAVE
22400075GRAVE

Airport contact information

Address: Canada

Satellite view of CCX3